Главная страница
METAR-TAF:

METAR-TAF

Аэропорты :

Кейптаун, Южно-Африканская Республика

широта: 33-59S, долгота: 018-36E, высота над уровнем моря: 42 м

Текущие метеонаблюдения

Эта сводка был подготовлена 22 минут назад, в 14:00 UTC
Ветер 11 Узел от юго-юго-восточный
Температура 28°C
Влажность 37%
Давление 1014 hPa
Видимость 10 км и более
Нет облачности ниже 1500 м, и нет кучево-дождевой облачности

METAR: FACT 141400Z 15011KT CAVOK 28/12 Q1014 NOSIG

Время: 16:22 (14:22 UTC)

Прогноз

Эта сводка был подготовлена 4 часа и 22 минут назад, в 10:00 UTC
Прогноз действительный с 14-го 12 UTC до 15-го 18 UTC
Ветер 10 Узел от южный-юго-западный
Видимость 10 км и более
Нет облачности ниже 1500 м, и нет кучево-дождевой облачности

TAF: FACT 141000Z 1412/1518 20010KT CAVOK TX27/1512Z TN13/1505Z

Метеонаблюдения и прогнозы для более 4000 аэропортов (сводки METAR и TAF).

Имеющиеся станции представлены на карте желтыми и красными точками.

Чтобы увидеть название станции, наведите на нее мышь.

Затем щелкните, чтобы увидеть метеонаблюдения и метеопрогнозы.

Управление картой: чтобы увеличить масштаб, щелкните зеленые кнопки с черным крестиком; чтобы уменьшить масштаб, щелкните зеленую кнопку с тире; для просмотра соседних карт щелкайте зеленые стрелки.


METAR-TAF: